Aviation Digital Data Service (ADDS)

Output produced by METARs form (0609 UTC 25 June 2018)
found at http://www.aviationweather.gov/adds/metars/
 
FVHA 250300Z 06004KT CAVOK 08/07 Q1025 NOSIG
FVHA 250400Z 2506/2612 08010KT CAVOK
       
FVBU 250400Z 2506/2612 10007KT CAVOK
       
FVFA 250400Z 2506/2612 11008KT CAVOK